createdAt,value
2019-02-14T00:02:06.335Z,125.80
2019-02-14T00:04:33.184Z,124.97
2019-02-14T00:06:59.924Z,125.18
2019-02-14T00:09:26.677Z,124.22
2019-02-14T00:11:54.444Z,126.15
2019-02-14T00:14:21.302Z,125.22
2019-02-14T00:16:48.166Z,125.72
2019-02-14T00:19:15.031Z,125.18
2019-02-14T00:21:41.779Z,124.82
2019-02-14T00:24:08.563Z,124.62
2019-02-14T00:26:35.549Z,124.70
2019-02-14T00:29:02.519Z,124.22
2019-02-14T00:31:29.258Z,123.78
2019-02-14T00:33:56.032Z,124.92
2019-02-14T00:36:22.768Z,125.60
2019-02-14T00:38:49.634Z,125.87
2019-02-14T00:41:16.498Z,124.78
2019-02-14T00:43:43.257Z,123.50
2019-02-14T00:46:10.213Z,123.70
2019-02-14T00:48:37.023Z,122.90
2019-02-14T00:51:03.909Z,123.10
2019-02-14T00:53:30.786Z,123.47
2019-02-14T00:55:57.649Z,123.70
2019-02-14T00:58:24.523Z,123.47
2019-02-14T01:00:52.297Z,123.90
2019-02-14T01:03:19.075Z,124.10
2019-02-14T01:05:45.887Z,124.75
2019-02-14T01:08:12.628Z,126.62
2019-02-14T01:10:39.378Z,125.47
2019-02-14T01:13:06.128Z,125.90
2019-02-14T01:15:36.188Z,124.22
2019-02-14T01:18:03.075Z,123.65
2019-02-14T01:20:33.524Z,123.92
2019-02-14T01:23:00.262Z,124.02
2019-02-14T01:25:27.148Z,124.27
2019-02-14T01:27:55.308Z,126.38
2019-02-14T01:30:22.107Z,124.60
2019-02-14T01:32:49.343Z,124.38
2019-02-14T01:35:16.212Z,125.75
2019-02-14T01:37:42.947Z,124.75
2019-02-14T01:40:09.967Z,124.95
2019-02-14T01:42:36.920Z,126.60
2019-02-14T01:45:04.753Z,125.70
2019-02-14T01:47:31.726Z,125.33
2019-02-14T01:49:58.572Z,125.82
2019-02-14T01:52:30.438Z,124.82
2019-02-14T01:54:59.421Z,125.25
2019-02-14T01:57:26.385Z,126.02
2019-02-14T01:59:53.164Z,124.38
2019-02-14T02:02:19.969Z,123.75
2019-02-14T02:04:46.797Z,123.92
2019-02-14T02:07:14.634Z,123.22
2019-02-14T02:09:41.643Z,124.55
2019-02-14T02:12:08.502Z,122.40
2019-02-14T02:14:35.241Z,123.42
2019-02-14T02:17:01.988Z,123.70
2019-02-14T02:19:28.918Z,124.38
2019-02-14T02:21:55.795Z,124.05
2019-02-14T02:24:22.534Z,123.87
2019-02-14T02:26:49.359Z,124.25
2019-02-14T02:29:16.104Z,123.78
2019-02-14T02:31:42.843Z,124.53
2019-02-14T02:34:09.931Z,125.90
2019-02-14T02:36:36.813Z,126.15
2019-02-14T02:39:05.788Z,125.50
2019-02-14T02:41:33.431Z,124.90
2019-02-14T02:44:00.389Z,125.47
2019-02-14T02:46:27.301Z,125.70
2019-02-14T02:48:53.999Z,124.60
2019-02-14T02:51:20.738Z,124.42
2019-02-14T02:53:47.543Z,124.87
2019-02-14T02:56:14.314Z,123.95
2019-02-14T02:58:41.150Z,125.75
2019-02-14T03:01:07.995Z,125.38
2019-02-14T03:03:34.839Z,124.78
2019-02-14T03:06:10.212Z,123.65
2019-02-14T03:08:30.468Z,123.97
2019-02-14T03:10:57.309Z,124.00
2019-02-14T03:13:24.199Z,124.27
2019-02-14T03:15:52.373Z,123.22
2019-02-14T03:18:19.307Z,123.22
2019-02-14T03:20:46.078Z,124.02
2019-02-14T03:23:14.029Z,124.67
2019-02-14T03:25:40.873Z,122.90
2019-02-14T03:28:07.606Z,123.02
2019-02-14T03:30:34.602Z,123.42
2019-02-14T03:33:01.436Z,123.82
2019-02-14T03:35:28.170Z,123.05
2019-02-14T03:37:55.050Z,122.82
2019-02-14T03:40:21.880Z,124.15
2019-02-14T03:42:48.641Z,124.05
2019-02-14T03:45:15.740Z,123.78
2019-02-14T03:47:42.503Z,123.25
2019-02-14T03:50:10.538Z,123.55
2019-02-14T03:52:37.422Z,123.30
2019-02-14T03:55:04.361Z,123.42
2019-02-14T03:57:31.215Z,125.50
2019-02-14T03:59:57.984Z,124.07
2019-02-14T04:02:24.730Z,124.87
2019-02-14T04:04:51.485Z,123.92
2019-02-14T04:07:18.382Z,123.38
2019-02-14T04:09:45.124Z,124.22
2019-02-14T04:12:11.901Z,123.67
2019-02-14T04:14:38.652Z,123.15
2019-02-14T04:17:05.501Z,123.97
2019-02-14T04:19:32.373Z,123.13
2019-02-14T04:21:59.166Z,123.75
2019-02-14T04:24:26.010Z,124.47
2019-02-14T04:26:52.738Z,124.42
2019-02-14T04:29:19.613Z,125.00
2019-02-14T04:31:46.340Z,124.20
2019-02-14T04:34:13.194Z,124.42
2019-02-14T04:36:40.016Z,125.22
2019-02-14T04:39:07.403Z,126.07
2019-02-14T04:41:34.248Z,124.60
2019-02-14T04:44:01.029Z,124.33
2019-02-14T04:46:27.773Z,124.30
2019-02-14T04:48:54.505Z,125.15
2019-02-14T04:51:21.699Z,124.42
2019-02-14T04:53:48.655Z,124.60
2019-02-14T04:56:15.414Z,124.02
2019-02-14T04:58:42.381Z,123.45
2019-02-14T05:01:09.220Z,125.80
2019-02-14T05:03:35.995Z,124.92
2019-02-14T05:06:02.866Z,124.72
2019-02-14T05:08:29.705Z,124.90
2019-02-14T05:10:56.445Z,125.42
2019-02-14T05:13:23.193Z,124.85
2019-02-14T05:15:50.047Z,125.62
2019-02-14T05:18:17.893Z,123.47
2019-02-14T05:20:44.687Z,124.65
2019-02-14T05:23:11.533Z,125.82
2019-02-14T05:25:38.538Z,123.75
2019-02-14T05:28:06.589Z,130.37
2019-02-14T05:30:33.499Z,135.07
2019-02-14T05:33:02.389Z,126.00
2019-02-14T05:35:31.791Z,125.70
2019-02-14T05:37:58.749Z,124.45
2019-02-14T05:40:25.506Z,124.87
2019-02-14T05:42:52.605Z,126.47
2019-02-14T05:45:19.338Z,126.00
2019-02-14T05:47:47.216Z,124.78
2019-02-14T05:50:14.036Z,126.07
2019-02-14T05:52:40.820Z,125.10
2019-02-14T05:55:08.690Z,124.45
2019-02-14T05:57:35.588Z,125.65
2019-02-14T06:00:04.463Z,125.62
2019-02-14T06:02:32.235Z,126.00
2019-02-14T06:04:59.465Z,127.32
2019-02-14T06:07:26.232Z,126.78
2019-02-14T06:09:53.105Z,127.12
2019-02-14T06:12:20.162Z,127.60
2019-02-14T06:14:47.114Z,126.92
2019-02-14T06:17:14.080Z,127.07
2019-02-14T06:19:41.089Z,128.42
2019-02-14T06:22:07.840Z,128.30
2019-02-14T06:24:34.801Z,127.22
2019-02-14T06:27:01.672Z,127.27
2019-02-14T06:29:28.394Z,126.85
2019-02-14T06:31:55.263Z,125.78
2019-02-14T06:34:22.273Z,124.82
2019-02-14T06:36:49.235Z,127.00
2019-02-14T06:39:16.124Z,132.57
2019-02-14T06:41:43.012Z,123.75
2019-02-14T06:44:09.774Z,128.70
2019-02-14T06:46:36.799Z,123.87
2019-02-14T06:49:03.655Z,123.97
2019-02-14T06:51:30.431Z,124.62
2019-02-14T06:53:57.413Z,125.40
2019-02-14T06:56:24.413Z,125.82
2019-02-14T06:58:51.317Z,124.45
2019-02-14T07:01:18.077Z,124.58
2019-02-14T07:03:44.975Z,123.15
2019-02-14T07:06:11.921Z,124.60
2019-02-14T07:08:38.684Z,124.87
2019-02-14T07:11:05.573Z,125.05
2019-02-14T07:13:32.317Z,125.45
2019-02-14T07:15:59.177Z,125.50
2019-02-14T07:18:25.993Z,125.22
2019-02-14T07:20:52.732Z,126.22
2019-02-14T07:23:19.604Z,127.20
2019-02-14T07:25:46.346Z,126.22
2019-02-14T07:28:13.140Z,129.30
2019-02-14T07:30:39.981Z,126.70
2019-02-14T07:33:06.932Z,126.40
2019-02-14T07:35:33.893Z,126.12
2019-02-14T07:38:00.647Z,127.53
2019-02-14T07:40:27.455Z,126.12
2019-02-14T07:42:54.318Z,128.93
2019-02-14T07:45:21.073Z,127.72
2019-02-14T07:47:47.953Z,128.80
2019-02-14T07:50:14.709Z,128.82
2019-02-14T07:52:41.486Z,128.42
2019-02-14T07:55:08.576Z,127.62
2019-02-14T07:57:35.654Z,127.15
2019-02-14T08:00:03.059Z,128.60
2019-02-14T08:02:30.361Z,128.68
2019-02-14T08:04:57.316Z,127.75
2019-02-14T08:07:24.092Z,128.47
2019-02-14T08:09:50.896Z,131.05
2019-02-14T08:12:17.757Z,129.32
2019-02-14T08:14:44.734Z,129.38
2019-02-14T08:17:11.739Z,129.85
2019-02-14T08:19:38.472Z,132.10
2019-02-14T08:22:05.426Z,131.35
2019-02-14T08:24:32.205Z,130.05
2019-02-14T08:26:59.115Z,130.25
2019-02-14T08:29:25.977Z,134.00
2019-02-14T08:31:52.877Z,133.25
2019-02-14T08:34:19.633Z,134.55
2019-02-14T08:36:46.604Z,136.00
2019-02-14T08:39:13.358Z,134.78
2019-02-14T08:41:40.312Z,135.80
2019-02-14T08:44:07.154Z,137.07
2019-02-14T08:46:33.945Z,138.07
2019-02-14T08:49:00.899Z,138.47
2019-02-14T08:51:27.755Z,137.37
2019-02-14T08:53:54.573Z,138.28
2019-02-14T08:56:21.428Z,138.40
2019-02-14T08:58:48.309Z,138.72
2019-02-14T09:01:15.172Z,137.97
2019-02-14T09:03:41.909Z,137.40
2019-02-14T09:06:08.840Z,138.03
2019-02-14T09:08:35.644Z,138.15
2019-02-14T09:11:02.518Z,136.40
2019-02-14T09:13:29.269Z,137.55
2019-02-14T09:15:56.206Z,138.05
2019-02-14T09:18:23.067Z,138.47
2019-02-14T09:20:51.881Z,138.97
2019-02-14T09:23:20.282Z,140.90
2019-02-14T09:25:47.017Z,139.35
2019-02-14T09:28:13.861Z,139.75
2019-02-14T09:30:40.664Z,140.77
2019-02-14T09:33:07.402Z,140.05
2019-02-14T09:35:34.147Z,139.88
2019-02-14T09:38:03.514Z,140.70
2019-02-14T09:40:29.674Z,141.70
2019-02-14T09:42:56.435Z,141.12
2019-02-14T09:45:23.224Z,141.60
2019-02-14T09:47:49.952Z,142.20
2019-02-14T09:50:16.708Z,141.95
2019-02-14T09:52:43.723Z,142.98
2019-02-14T09:55:10.466Z,144.35
2019-02-14T09:57:37.448Z,143.47
2019-02-14T10:00:06.040Z,143.65
2019-02-14T10:02:32.951Z,143.75
2019-02-14T10:04:59.705Z,140.75
2019-02-14T10:07:26.634Z,139.60
2019-02-14T10:09:53.585Z,144.32
2019-02-14T10:12:20.546Z,140.60
2019-02-14T10:14:47.322Z,141.12
2019-02-14T10:17:22.058Z,139.95
2019-02-14T10:19:42.814Z,139.97
2019-02-14T10:22:10.985Z,142.07
2019-02-14T10:24:37.715Z,142.05
2019-02-14T10:27:04.448Z,142.22
2019-02-14T10:29:31.312Z,143.13
2019-02-14T10:31:58.042Z,142.32
2019-02-14T10:34:24.973Z,141.95
2019-02-14T10:36:52.588Z,142.93
2019-02-14T10:39:19.585Z,143.52
2019-02-14T10:41:46.387Z,145.65
2019-02-14T10:44:13.416Z,145.60
2019-02-14T10:46:40.307Z,147.37
2019-02-14T10:49:08.421Z,147.17
2019-02-14T10:51:35.423Z,149.07
2019-02-14T10:54:04.370Z,149.35
2019-02-14T10:56:31.109Z,147.95
2019-02-14T10:58:59.791Z,148.17
2019-02-14T11:01:26.673Z,148.15
2019-02-14T11:03:53.418Z,149.55
2019-02-14T11:06:20.211Z,149.97
2019-02-14T11:08:47.066Z,146.32
2019-02-14T11:11:13.831Z,149.05
2019-02-14T11:13:40.648Z,148.68
2019-02-14T11:16:09.635Z,147.78
2019-02-14T11:18:43.972Z,147.87
2019-02-14T11:21:05.295Z,149.42
2019-02-14T11:23:32.250Z,150.85
2019-02-14T11:25:59.222Z,149.82
2019-02-14T11:28:26.045Z,149.20
2019-02-14T11:30:52.895Z,148.95
2019-02-14T11:33:19.774Z,148.38
2019-02-14T11:35:46.726Z,148.45
2019-02-14T11:38:13.521Z,155.35
2019-02-14T11:40:40.261Z,147.05
2019-02-14T11:43:07.387Z,147.85
2019-02-14T11:45:34.133Z,146.35
2019-02-14T11:48:01.103Z,146.68
2019-02-14T11:50:27.916Z,147.57
2019-02-14T11:52:54.769Z,147.35
2019-02-14T11:55:22.724Z,149.30
2019-02-14T11:57:49.544Z,148.53
2019-02-14T12:00:19.533Z,147.65
2019-02-14T12:02:54.729Z,151.78
2019-02-14T12:05:15.099Z,145.40
2019-02-14T12:07:41.964Z,147.15
2019-02-14T12:10:13.361Z,145.80
2019-02-14T12:12:37.941Z,147.00
2019-02-14T12:15:04.977Z,147.22
2019-02-14T12:17:31.828Z,146.57
2019-02-14T12:19:58.619Z,145.10
2019-02-14T12:22:25.581Z,145.30
2019-02-14T12:24:52.492Z,146.65
2019-02-14T12:27:19.266Z,147.40
2019-02-14T12:29:46.009Z,147.37
2019-02-14T12:32:12.782Z,152.38
2019-02-14T12:34:39.691Z,146.22
2019-02-14T12:37:06.485Z,147.55
2019-02-14T12:39:33.471Z,147.62
2019-02-14T12:42:00.476Z,148.07
2019-02-14T12:44:27.244Z,148.35
2019-02-14T12:46:54.097Z,150.10
2019-02-14T12:49:20.865Z,151.07
2019-02-14T12:51:47.830Z,151.07
2019-02-14T12:54:14.587Z,149.80
2019-02-14T12:56:41.344Z,150.25
2019-02-14T12:59:08.201Z,149.23
2019-02-14T13:01:35.193Z,149.70
2019-02-14T13:04:02.079Z,149.40
2019-02-14T13:06:29.048Z,149.32
2019-02-14T13:08:55.773Z,148.40
2019-02-14T13:11:22.678Z,148.93
2019-02-14T13:13:50.683Z,149.30
2019-02-14T13:16:18.201Z,149.47
2019-02-14T13:18:45.120Z,148.28
2019-02-14T13:21:11.874Z,147.93
2019-02-14T13:23:38.635Z,148.38
2019-02-14T13:26:05.511Z,149.62
2019-02-14T13:28:32.381Z,161.52
2019-02-14T13:30:59.339Z,151.07
2019-02-14T13:33:26.319Z,149.87
2019-02-14T13:35:53.175Z,149.72
2019-02-14T13:38:19.925Z,148.43
2019-02-14T13:40:46.937Z,147.43
2019-02-14T13:43:13.825Z,148.10
2019-02-14T13:45:40.599Z,146.35
2019-02-14T13:48:11.357Z,146.30
2019-02-14T13:50:38.354Z,157.97
2019-02-14T13:53:05.172Z,149.25
2019-02-14T13:55:33.871Z,148.28
2019-02-14T13:58:00.893Z,151.18
2019-02-14T14:00:27.746Z,151.45
2019-02-14T14:02:54.838Z,149.00
2019-02-14T14:05:28.408Z,150.80
2019-02-14T14:07:55.861Z,152.17
2019-02-14T14:10:22.766Z,150.93
2019-02-14T14:12:49.736Z,149.00
2019-02-14T14:15:16.725Z,151.50
2019-02-14T14:17:43.537Z,154.68
2019-02-14T14:20:10.435Z,152.05
2019-02-14T14:22:37.460Z,149.02
2019-02-14T14:25:07.216Z,147.40
2019-02-14T14:27:33.988Z,147.45
2019-02-14T14:30:03.045Z,148.68
2019-02-14T14:32:31.611Z,147.40
2019-02-14T14:34:58.489Z,150.03
2019-02-14T14:37:25.257Z,145.43
2019-02-14T14:40:01.423Z,149.00
2019-02-14T14:42:55.472Z,146.00
2019-02-14T14:45:33.028Z,148.15
2019-02-14T14:48:00.204Z,150.47
2019-02-14T14:50:26.947Z,146.15
2019-02-14T14:52:53.820Z,148.20
2019-02-14T14:55:20.615Z,150.72
2019-02-14T14:57:47.476Z,150.05
2019-02-14T15:00:14.222Z,148.72
2019-02-14T15:02:41.124Z,150.32
2019-02-14T15:05:07.858Z,151.63
2019-02-14T15:07:35.041Z,148.40
2019-02-14T15:10:02.037Z,147.93
2019-02-14T15:12:30.675Z,148.20
2019-02-14T15:14:59.884Z,147.68
2019-02-14T15:17:28.013Z,146.93
2019-02-14T15:19:55.000Z,146.30
2019-02-14T15:22:22.003Z,149.10
2019-02-14T15:24:48.789Z,153.87
2019-02-14T15:27:15.640Z,147.15
2019-02-14T15:29:42.388Z,156.93
2019-02-14T15:32:09.260Z,155.30
2019-02-14T15:34:36.012Z,152.72
2019-02-14T15:37:03.352Z,146.37
2019-02-14T15:39:30.168Z,153.50
2019-02-14T15:41:56.969Z,162.62
2019-02-14T15:44:23.720Z,157.55
2019-02-14T15:46:56.874Z,147.85
2019-02-14T15:49:29.911Z,146.70
2019-02-14T15:51:59.331Z,150.78
2019-02-14T15:54:26.131Z,179.60
2019-02-14T15:56:53.651Z,149.57
2019-02-14T15:59:23.764Z,182.75
2019-02-14T16:01:50.714Z,178.72
2019-02-14T16:04:17.716Z,151.37
2019-02-14T16:06:44.483Z,153.27
2019-02-14T16:09:12.283Z,148.57
2019-02-14T16:11:40.085Z,142.18
2019-02-14T16:14:07.081Z,143.75
2019-02-14T16:16:33.941Z,141.85
2019-02-14T16:19:00.683Z,142.75
2019-02-14T16:21:29.383Z,141.55
2019-02-14T16:23:56.499Z,144.95
2019-02-14T16:26:23.385Z,145.00
2019-02-14T16:28:51.742Z,144.70
2019-02-14T16:31:18.467Z,143.37
2019-02-14T16:33:45.305Z,143.45
2019-02-14T16:36:12.340Z,143.37
2019-02-14T16:38:39.117Z,144.93
2019-02-14T16:41:05.960Z,143.52
2019-02-14T16:43:32.885Z,145.57
2019-02-14T16:45:59.732Z,146.10
2019-02-14T16:48:26.573Z,144.10
2019-02-14T16:50:53.379Z,144.93
2019-02-14T16:53:20.191Z,143.35
2019-02-14T16:55:47.822Z,143.35
2019-02-14T16:58:14.713Z,143.02
2019-02-14T17:00:41.571Z,144.53
2019-02-14T17:03:08.321Z,141.40
2019-02-14T17:05:35.123Z,143.32
2019-02-14T17:08:01.985Z,140.90
2019-02-14T17:10:36.812Z,140.45
2019-02-14T17:13:03.454Z,141.22
2019-02-14T17:15:31.806Z,141.62
2019-02-14T17:17:58.783Z,145.30
2019-02-14T17:20:25.812Z,144.28
2019-02-14T17:22:52.798Z,141.37
2019-02-14T17:25:19.706Z,140.77
2019-02-14T17:27:46.531Z,140.18
2019-02-14T17:30:13.519Z,140.77
2019-02-14T17:32:40.297Z,142.65
2019-02-14T17:35:07.096Z,139.90
2019-02-14T17:37:33.945Z,140.22
2019-02-14T17:40:00.708Z,139.95
2019-02-14T17:42:27.462Z,150.32
2019-02-14T17:44:54.472Z,145.15
2019-02-14T17:47:21.400Z,140.68
2019-02-14T17:49:48.398Z,140.07
2019-02-14T17:52:15.872Z,140.57
2019-02-14T17:54:44.671Z,148.87
2019-02-14T17:57:11.541Z,139.28
2019-02-14T17:59:38.295Z,138.45
2019-02-14T18:02:05.301Z,141.00
2019-02-14T18:04:32.336Z,141.77
2019-02-14T18:06:59.176Z,141.60
2019-02-14T18:09:26.044Z,142.22
2019-02-14T18:11:55.063Z,140.15
2019-02-14T18:14:21.927Z,141.73
2019-02-14T18:16:48.828Z,139.10
2019-02-14T18:19:16.420Z,139.35
2019-02-14T18:21:46.379Z,142.45
2019-02-14T18:24:13.471Z,140.92
2019-02-14T18:26:40.375Z,142.82
2019-02-14T18:29:07.262Z,141.85
2019-02-14T18:31:34.129Z,138.52
2019-02-14T18:34:00.917Z,137.95
2019-02-14T18:36:27.878Z,139.43
2019-02-14T18:38:54.865Z,135.93
2019-02-14T18:41:21.634Z,138.20
2019-02-14T18:43:48.609Z,137.57
2019-02-14T18:46:15.504Z,136.95
2019-02-14T18:48:42.466Z,138.62
2019-02-14T18:51:09.350Z,137.77
2019-02-14T18:53:36.190Z,137.18
2019-02-14T18:56:02.944Z,135.55
2019-02-14T18:58:30.180Z,135.37
2019-02-14T19:00:57.289Z,137.22
2019-02-14T19:03:24.323Z,136.62
2019-02-14T19:05:51.218Z,137.20
2019-02-14T19:08:18.573Z,135.70
2019-02-14T19:10:45.420Z,137.40
2019-02-14T19:13:12.347Z,136.80
2019-02-14T19:15:39.383Z,134.67
2019-02-14T19:18:06.816Z,136.40
2019-02-14T19:20:33.811Z,136.10
2019-02-14T19:23:00.783Z,139.72
2019-02-14T19:25:29.561Z,135.75
2019-02-14T19:27:56.316Z,137.28
2019-02-14T19:30:23.332Z,135.50
2019-02-14T19:32:50.321Z,137.85
2019-02-14T19:35:23.223Z,138.77
2019-02-14T19:37:45.957Z,137.12
2019-02-14T19:40:12.831Z,138.25
2019-02-14T19:42:41.983Z,139.28
2019-02-14T19:45:08.871Z,137.10
2019-02-14T19:47:35.948Z,139.75
2019-02-14T19:50:05.359Z,138.70
2019-02-14T19:52:33.377Z,138.32
2019-02-14T19:55:00.343Z,143.85
2019-02-14T19:57:27.417Z,141.22
2019-02-14T19:59:54.455Z,136.95
2019-02-14T20:02:21.322Z,138.35
2019-02-14T20:04:48.118Z,136.28
2019-02-14T20:07:15.040Z,136.40
2019-02-14T20:09:42.014Z,135.50
2019-02-14T20:12:08.884Z,136.80
2019-02-14T20:14:35.788Z,136.37
2019-02-14T20:17:03.159Z,135.78
2019-02-14T20:19:30.025Z,138.10
2019-02-14T20:21:56.885Z,139.95
2019-02-14T20:24:23.743Z,142.53
2019-02-14T20:26:50.692Z,134.12
2019-02-14T20:29:17.466Z,133.97
2019-02-14T20:31:47.255Z,133.30
2019-02-14T20:34:14.248Z,133.93
2019-02-14T20:36:41.104Z,137.10
2019-02-14T20:39:08.129Z,137.92
2019-02-14T20:41:35.292Z,135.43
2019-02-14T20:44:02.340Z,134.43
2019-02-14T20:46:29.192Z,134.65
2019-02-14T20:48:56.157Z,134.67
2019-02-14T20:51:23.087Z,133.50
2019-02-14T20:53:50.077Z,133.65
2019-02-14T20:56:17.090Z,132.95
2019-02-14T20:58:44.067Z,133.25
2019-02-14T21:01:11.020Z,131.93
2019-02-14T21:03:38.393Z,132.22
2019-02-14T21:06:05.454Z,132.55
2019-02-14T21:08:32.384Z,130.45
2019-02-14T21:10:59.342Z,131.27
2019-02-14T21:13:29.033Z,130.30
2019-02-14T21:15:58.173Z,130.90
2019-02-14T21:18:25.039Z,131.30
2019-02-14T21:20:51.949Z,131.60
2019-02-14T21:23:18.818Z,132.03
2019-02-14T21:25:45.781Z,130.65
2019-02-14T21:28:12.750Z,131.15
2019-02-14T21:30:39.716Z,131.57
2019-02-14T21:33:06.623Z,130.60
2019-02-14T21:35:33.738Z,131.78
2019-02-14T21:38:00.602Z,130.60
2019-02-14T21:40:27.630Z,132.25
2019-02-14T21:42:54.685Z,131.67
2019-02-14T21:45:21.546Z,132.25
2019-02-14T21:47:48.320Z,133.15
2019-02-14T21:50:15.516Z,131.87
2019-02-14T21:52:42.563Z,132.22
2019-02-14T21:55:09.340Z,132.03
2019-02-14T21:57:36.343Z,132.03
2019-02-14T22:00:04.236Z,132.85
2019-02-14T22:02:31.550Z,131.30
2019-02-14T22:04:58.467Z,132.78
2019-02-14T22:07:25.434Z,131.47
2019-02-14T22:09:52.332Z,134.45
2019-02-14T22:12:38.347Z,131.40
2019-02-14T22:14:48.089Z,132.05
2019-02-14T22:17:14.841Z,133.47
2019-02-14T22:19:42.977Z,131.32
2019-02-14T22:22:10.054Z,131.47
2019-02-14T22:24:36.796Z,131.35
2019-02-14T22:27:03.809Z,131.93
2019-02-14T22:29:30.920Z,131.80
2019-02-14T22:31:57.904Z,133.90
2019-02-14T22:34:24.693Z,132.90
2019-02-14T22:36:51.446Z,133.90
2019-02-14T22:39:18.313Z,132.85
2019-02-14T22:41:45.305Z,133.78
2019-02-14T22:44:12.198Z,132.80
2019-02-14T22:46:39.096Z,133.30
2019-02-14T22:49:06.114Z,132.82
2019-02-14T22:51:33.019Z,146.95
2019-02-14T22:53:59.760Z,134.40
2019-02-14T22:56:26.669Z,134.15
2019-02-14T22:58:53.639Z,133.63
2019-02-14T23:01:20.651Z,133.03
2019-02-14T23:03:47.636Z,134.95
2019-02-14T23:06:14.508Z,132.50
2019-02-14T23:08:41.262Z,133.70
2019-02-14T23:11:08.162Z,133.05
2019-02-14T23:13:35.147Z,132.35
2019-02-14T23:16:02.137Z,133.05
2019-02-14T23:18:28.932Z,132.07
2019-02-14T23:20:55.799Z,132.70
2019-02-14T23:23:22.696Z,132.95
2019-02-14T23:25:49.623Z,131.52
2019-02-14T23:28:16.766Z,133.25
2019-02-14T23:30:43.627Z,130.90
2019-02-14T23:33:10.400Z,131.57
2019-02-14T23:35:39.213Z,132.30
2019-02-14T23:38:05.980Z,131.30
2019-02-14T23:40:32.877Z,130.97
2019-02-14T23:43:04.732Z,132.32
2019-02-14T23:45:28.374Z,130.87
2019-02-14T23:47:55.262Z,130.15
2019-02-14T23:50:22.006Z,130.65
2019-02-14T23:52:48.880Z,131.43
2019-02-14T23:55:15.756Z,131.70
2019-02-14T23:57:42.748Z,131.65
